Time;durP1;ratioP1;P1;durP2;ratioP2;P2;SDS_P1;SDS_P2;PMS_P1;PMS_P2;Temp;Humidity;BMP_temperature;BMP_pressure;BME280_temperature;BME280_humidity;BME280_pressure;Samples;Min_cycle;Max_cycle;Signal;HPM_P1;HPM_P2
2022/10/06 00:00:48;;;;;;;3.77;1.07;;;13.10;99.90;;;;;;5093748;28;20254;-57
2022/10/06 00:03:16;;;;;;;4.43;1.17;;;13.10;99.90;;;;;;5093460;28;20615;-59
2022/10/06 00:05:44;;;;;;;5.73;1.20;;;13.00;99.90;;;;;;5093470;28;20208;-59
2022/10/06 00:08:10;;;;;;;2.10;0.90;;;12.90;99.90;;;;;;5093075;28;20725;-59
2022/10/06 00:10:39;;;;;;;4.37;1.00;;;13.00;99.90;;;;;;5093685;28;20204;-59
2022/10/06 00:13:06;;;;;;;3.90;0.80;;;13.00;99.90;;;;;;5093344;28;20207;-59
2022/10/06 00:15:33;;;;;;;2.47;0.87;;;12.80;99.90;;;;;;5093482;28;20252;-59
2022/10/06 00:18:01;;;;;;;4.27;1.10;;;12.80;99.90;;;;;;5093063;28;20224;-59
2022/10/06 00:20:29;;;;;;;2.80;1.20;;;12.80;99.90;;;;;;5093234;28;20204;-58
2022/10/06 00:22:57;;;;;;;5.87;1.40;;;12.80;99.90;;;;;;5093047;28;20241;-57
2022/10/06 00:25:25;;;;;;;2.43;1.17;;;12.80;99.90;;;;;;5093134;28;20215;-59
2022/10/06 00:27:53;;;;;;;5.67;1.90;;;12.80;99.90;;;;;;5092696;28;20250;-59
2022/10/06 00:30:22;;;;;;;2.50;1.13;;;12.90;99.90;;;;;;5093138;28;20203;-59
2022/10/06 00:32:53;;;;;;;4.63;0.90;;;12.80;99.90;;;;;;5092890;28;20210;-59
2022/10/06 00:35:20;;;;;;;2.70;0.93;;;12.80;99.90;;;;;;5092922;28;20216;-59
2022/10/06 00:37:48;;;;;;;3.97;1.10;;;12.80;99.90;;;;;;5092413;28;20231;-59
2022/10/06 00:40:15;;;;;;;2.10;0.80;;;12.80;99.90;;;;;;5092850;28;20269;-59
2022/10/06 00:42:52;;;;;;;6.43;1.07;;;12.80;99.90;;;;;;5092880;28;20208;-59
2022/10/06 00:45:25;;;;;;;3.63;0.73;;;12.80;99.90;;;;;;5092861;28;20211;-58
2022/10/06 00:47:52;;;;;;;2.40;0.93;;;12.80;99.90;;;;;;5092273;28;20778;-59
2022/10/06 00:50:19;;;;;;;4.60;1.13;;;12.70;99.90;;;;;;5092583;28;20731;-59
2022/10/06 00:52:47;;;;;;;5.37;1.23;;;12.70;99.90;;;;;;5092544;28;20615;-58
2022/10/06 00:55:14;;;;;;;3.90;0.70;;;12.70;99.90;;;;;;5092676;28;20625;-58
2022/10/06 00:57:42;;;;;;;5.80;1.27;;;12.70;99.90;;;;;;5092168;28;20238;-59
2022/10/06 01:00:10;;;;;;;1.93;0.70;;;12.70;99.90;;;;;;5092488;28;20216;-59
2022/10/06 01:02:41;;;;;;;2.13;0.90;;;12.60;99.90;;;;;;5092634;28;20268;-59
2022/10/06 01:05:11;;;;;;;2.90;0.97;;;12.60;99.90;;;;;;5092556;28;20211;-59
2022/10/06 01:07:38;;;;;;;3.23;1.00;;;12.60;99.90;;;;;;5092385;28;20230;-59
2022/10/06 01:10:06;;;;;;;8.40;1.20;;;12.60;99.90;;;;;;5092377;28;20792;-58
2022/10/06 01:12:34;;;;;;;2.03;0.90;;;12.50;99.90;;;;;;5092305;28;20211;-59
2022/10/06 01:15:01;;;;;;;8.33;1.00;;;12.40;99.90;;;;;;5092240;28;20237;-58
2022/10/06 01:17:33;;;;;;;6.43;1.00;;;12.50;99.90;;;;;;5092696;28;20227;-59
2022/10/06 01:20:02;;;;;;;6.07;1.07;;;12.40;99.90;;;;;;5093173;28;20260;-59
2022/10/06 01:22:32;;;;;;;4.83;1.10;;;12.30;99.90;;;;;;5092629;28;20208;-59
2022/10/06 01:24:59;;;;;;;3.90;0.90;;;12.30;99.90;;;;;;5092349;28;20596;-59
2022/10/06 01:27:29;;;;;;;10.87;1.30;;;12.30;99.90;;;;;;5091653;28;20900;-59
2022/10/06 01:29:57;;;;;;;6.83;1.30;;;12.30;99.90;;;;;;5092405;28;20220;-59
2022/10/06 01:32:25;;;;;;;5.73;1.40;;;12.30;99.90;;;;;;5092234;28;20254;-59
2022/10/06 01:34:52;;;;;;;3.37;1.30;;;12.20;99.90;;;;;;5092353;28;20229;-58
2022/10/06 01:37:18;;;;;;;2.97;1.40;;;12.20;99.90;;;;;;5091804;28;20230;-58
2022/10/06 01:39:46;;;;;;;6.10;1.30;;;12.20;99.90;;;;;;5091943;28;20208;-59
2022/10/06 01:42:13;;;;;;;6.07;1.17;;;12.20;99.90;;;;;;5092135;28;20269;-59
2022/10/06 01:44:40;;;;;;;6.40;1.37;;;12.10;99.90;;;;;;5092243;28;20264;-59
2022/10/06 01:47:07;;;;;;;5.70;1.73;;;12.20;99.90;;;;;;5091603;28;20686;-59
2022/10/06 01:49:34;;;;;;;5.40;1.40;;;12.10;99.90;;;;;;5091859;28;20231;-59
2022/10/06 01:52:01;;;;;;;5.27;1.37;;;12.10;99.90;;;;;;5091914;28;20264;-59
2022/10/06 01:54:28;;;;;;;5.83;1.40;;;12.10;99.90;;;;;;5091912;28;20203;-59
2022/10/06 01:56:56;;;;;;;8.53;1.50;;;12.10;99.90;;;;;;5092176;28;20313;-59
2022/10/06 01:59:23;;;;;;;3.03;1.20;;;12.10;99.90;;;;;;5092185;28;20230;-56
2022/10/06 02:01:50;;;;;;;6.93;1.20;;;12.00;99.90;;;;;;5092095;28;20206;-59
2022/10/06 02:04:17;;;;;;;4.47;1.20;;;12.00;99.90;;;;;;5091799;28;20731;-59
2022/10/06 02:06:44;;;;;;;10.53;1.60;;;12.00;99.90;;;;;;5091515;28;20205;-59
2022/10/06 02:09:10;;;;;;;3.47;1.13;;;12.00;99.90;;;;;;5091829;28;20230;-59
2022/10/06 02:11:37;;;;;;;7.10;1.60;;;12.00;99.90;;;;;;5091827;28;20256;-59
2022/10/06 02:14:05;;;;;;;9.20;1.57;;;12.00;99.90;;;;;;5091754;28;20200;-59
2022/10/06 02:16:32;;;;;;;5.77;1.53;;;12.00;99.90;;;;;;5091587;28;20234;-59
2022/10/06 02:18:59;;;;;;;2.60;1.20;;;12.00;99.90;;;;;;5091568;28;20225;-58
2022/10/06 02:21:26;;;;;;;5.93;1.40;;;12.00;99.90;;;;;;5091584;28;20205;-59
2022/10/06 02:23:52;;;;;;;8.03;1.70;;;11.90;99.90;;;;;;5091618;28;20204;-59
2022/10/06 02:26:19;;;;;;;8.57;1.53;;;12.00;99.90;;;;;;5093577;28;20222;-59
2022/10/06 02:28:47;;;;;;;6.33;1.57;;;11.90;99.90;;;;;;5095234;28;20231;-59
2022/10/06 02:31:15;;;;;;;5.33;1.73;;;11.90;99.90;;;;;;5095511;28;20216;-59
2022/10/06 02:33:43;;;;;;;7.70;2.10;;;11.90;99.90;;;;;;5095338;28;20288;-59
2022/10/06 02:36:11;;;;;;;9.23;2.03;;;11.90;99.90;;;;;;5095049;28;20239;-59
2022/10/06 02:38:38;;;;;;;3.77;1.20;;;11.90;99.90;;;;;;5095256;28;20631;-59
2022/10/06 02:41:06;;;;;;;7.97;2.20;;;11.90;99.90;;;;;;5095095;28;20246;-59
2022/10/06 02:43:33;;;;;;;8.03;2.10;;;11.80;99.90;;;;;;5095110;28;20606;-59
2022/10/06 02:46:02;;;;;;;8.33;1.97;;;11.90;99.90;;;;;;5094872;28;20254;-58
2022/10/06 02:48:31;;;;;;;2.23;1.13;;;11.90;99.90;;;;;;5095063;28;20221;-59
2022/10/06 02:51:00;;;;;;;3.60;1.63;;;11.80;99.90;;;;;;5095094;28;20208;-59
2022/10/06 02:53:27;;;;;;;5.50;1.50;;;11.80;99.90;;;;;;5094866;28;20205;-59
2022/10/06 02:55:59;;;;;;;7.77;1.73;;;11.80;99.90;;;;;;5094774;28;20283;-58
2022/10/06 02:58:26;;;;;;;5.70;1.50;;;11.90;99.90;;;;;;5094854;28;20232;-59
2022/10/06 03:00:52;;;;;;;8.77;2.17;;;11.90;99.90;;;;;;5094989;28;20209;-58
2022/10/06 03:03:19;;;;;;;8.83;1.67;;;11.90;99.90;;;;;;5094909;28;20208;-59
2022/10/06 03:05:47;;;;;;;5.10;1.80;;;11.90;99.90;;;;;;5094875;28;20254;-59
2022/10/06 03:08:14;;;;;;;6.37;1.80;;;11.90;99.90;;;;;;5094371;28;20216;-59
2022/10/06 03:10:40;;;;;;;7.57;1.80;;;11.90;99.90;;;;;;5094661;28;20645;-58
2022/10/06 03:13:07;;;;;;;4.30;1.90;;;11.80;99.90;;;;;;5094690;28;20239;-58
2022/10/06 03:15:34;;;;;;;7.43;1.67;;;11.80;99.90;;;;;;5094471;28;20200;-59
2022/10/06 03:18:01;;;;;;;5.00;1.43;;;11.90;99.90;;;;;;5094296;28;20588;-56
2022/10/06 03:20:27;;;;;;;7.37;1.90;;;11.90;99.90;;;;;;5094630;28;20200;-59
2022/10/06 03:22:55;;;;;;;5.43;1.90;;;11.90;99.90;;;;;;5094182;28;20200;-53
2022/10/06 03:25:22;;;;;;;6.07;1.97;;;11.90;99.90;;;;;;5094233;28;20232;-58
2022/10/06 03:27:48;;;;;;;5.40;1.80;;;11.80;99.90;;;;;;5094153;28;20224;-53
2022/10/06 03:30:16;;;;;;;5.13;1.67;;;11.90;99.90;;;;;;5094384;28;20208;-54
2022/10/06 03:32:43;;;;;;;5.40;1.50;;;11.80;99.90;;;;;;5094102;28;20206;-54
2022/10/06 03:35:10;;;;;;;7.20;1.80;;;11.80;99.90;;;;;;5094193;28;20215;-56
2022/10/06 03:37:36;;;;;;;9.00;2.10;;;11.80;99.90;;;;;;5093431;28;20232;-57
2022/10/06 03:40:05;;;;;;;6.70;1.60;;;11.70;99.90;;;;;;5093997;28;20226;-55
2022/10/06 03:42:32;;;;;;;10.83;1.40;;;11.80;99.90;;;;;;5094005;28;20674;-54
2022/10/06 03:44:59;;;;;;;9.97;1.63;;;11.70;99.90;;;;;;5093778;28;20201;-55
2022/10/06 03:47:26;;;;;;;7.37;1.53;;;11.70;99.90;;;;;;5093764;28;20258;-58
2022/10/06 03:49:52;;;;;;;9.70;1.80;;;11.60;99.90;;;;;;5093903;28;20634;-58
2022/10/06 03:52:19;;;;;;;9.07;1.93;;;11.60;99.90;;;;;;5093785;28;20648;-59
2022/10/06 03:54:45;;;;;;;9.13;1.97;;;11.50;99.90;;;;;;5093605;28;20208;-54
2022/10/06 03:57:13;;;;;;;12.70;5.87;;;11.50;99.90;;;;;;5093237;28;20725;-59
2022/10/06 03:59:40;;;;;;;8.43;1.90;;;11.50;99.90;;;;;;5093836;28;20230;-59
2022/10/06 04:02:07;;;;;;;7.53;1.73;;;11.50;99.90;;;;;;5093719;28;20266;-56
2022/10/06 04:04:33;;;;;;;6.17;1.73;;;11.40;99.90;;;;;;5093608;28;20208;-58
2022/10/06 04:07:00;;;;;;;7.80;1.97;;;11.40;99.90;;;;;;5093501;28;20550;-59
2022/10/06 04:09:27;;;;;;;7.13;1.60;;;11.40;99.90;;;;;;5093358;28;20767;-59
2022/10/06 04:11:53;;;;;;;5.33;1.90;;;11.40;99.90;;;;;;5093273;28;20208;-56
2022/10/06 04:14:21;;;;;;;10.97;2.10;;;11.30;99.90;;;;;;5093616;28;20638;-59
2022/10/06 04:16:50;;;;;;;9.03;1.63;;;11.30;99.90;;;;;;5093248;28;20620;-59
2022/10/06 04:19:17;;;;;;;10.20;2.30;;;11.30;99.90;;;;;;5093336;28;20216;-60
2022/10/06 04:21:46;;;;;;;6.17;1.80;;;11.30;99.90;;;;;;5093092;28;20710;-58
2022/10/06 04:24:12;;;;;;;11.80;2.20;;;11.20;99.90;;;;;;5093236;28;20205;-58
2022/10/06 04:26:43;;;;;;;10.10;2.13;;;11.20;99.90;;;;;;5092671;28;20216;-54
2022/10/06 04:29:10;;;;;;;8.40;2.00;;;11.10;99.90;;;;;;5093298;28;20355;-57
2022/10/06 04:31:39;;;;;;;7.17;2.10;;;11.10;99.90;;;;;;5093040;28;20208;-58
2022/10/06 04:34:07;;;;;;;7.10;1.60;;;11.10;99.90;;;;;;5093547;28;20207;-57
2022/10/06 04:36:37;;;;;;;14.07;2.10;;;11.10;99.90;;;;;;5092771;28;20204;-58
2022/10/06 04:39:05;;;;;;;8.83;1.87;;;11.00;99.90;;;;;;5091121;28;20246;-58
2022/10/06 04:41:35;;;;;;;6.77;2.00;;;11.00;99.90;;;;;;5091413;28;20200;-59
2022/10/06 04:44:03;;;;;;;5.23;1.67;;;10.90;99.90;;;;;;5092475;28;20245;-59
2022/10/06 04:46:31;;;;;;;12.03;2.80;;;10.90;99.90;;;;;;5092001;28;20203;-59
2022/10/06 04:48:59;;;;;;;9.90;2.07;;;10.90;99.90;;;;;;5091860;28;20228;-59
2022/10/06 04:51:27;;;;;;;7.83;1.87;;;10.90;99.90;;;;;;5092121;28;20200;-58
2022/10/06 04:53:54;;;;;;;11.13;2.23;;;10.90;99.90;;;;;;5092385;28;20670;-59
2022/10/06 04:56:22;;;;;;;5.90;1.67;;;10.80;99.90;;;;;;5092463;28;20208;-59
2022/10/06 04:58:50;;;;;;;8.33;1.93;;;10.80;99.90;;;;;;5092402;28;20662;-57
2022/10/06 05:01:19;;;;;;;13.47;2.10;;;10.80;99.90;;;;;;5092470;28;20257;-59
2022/10/06 05:03:47;;;;;;;10.17;1.70;;;10.70;99.90;;;;;;5091999;28;20200;-59
2022/10/06 05:06:17;;;;;;;13.00;2.10;;;10.70;99.90;;;;;;5092321;28;20211;-59
2022/10/06 05:08:47;;;;;;;8.37;1.83;;;10.70;99.90;;;;;;5092040;28;20231;-59
2022/10/06 05:11:14;;;;;;;7.50;2.00;;;10.70;99.90;;;;;;5092155;28;20686;-60
2022/10/06 05:13:42;;;;;;;18.63;2.07;;;10.60;99.90;;;;;;5091910;28;20204;-58
2022/10/06 05:16:11;;;;;;;11.17;2.63;;;10.60;99.90;;;;;;5091902;28;20204;-63
2022/10/06 05:18:38;;;;;;;8.23;2.33;;;10.60;99.90;;;;;;5091157;28;20229;-64
2022/10/06 05:21:07;;;;;;;7.00;2.20;;;10.60;99.90;;;;;;5092194;28;20209;-63
2022/10/06 05:23:37;;;;;;;8.90;2.03;;;10.60;99.90;;;;;;5091648;28;20200;-59
2022/10/06 05:26:04;;;;;;;7.87;2.30;;;10.70;99.90;;;;;;5091749;28;20211;-59
2022/10/06 05:28:32;;;;;;;5.27;1.70;;;10.60;99.90;;;;;;5091839;28;20220;-59
2022/10/06 05:31:00;;;;;;;6.47;1.50;;;10.50;99.90;;;;;;5091589;28;20200;-59
2022/10/06 05:33:28;;;;;;;7.87;1.83;;;10.50;99.90;;;;;;5091864;28;20208;-59
2022/10/06 05:35:57;;;;;;;8.27;2.30;;;10.50;99.90;;;;;;5091092;28;20674;-62
2022/10/06 05:38:26;;;;;;;8.30;1.90;;;10.40;99.90;;;;;;5091428;28;20694;-61
2022/10/06 05:41:00;;;;;;;11.47;2.43;;;10.40;99.90;;;;;;5091509;28;20215;-64
2022/10/06 05:43:27;;;;;;;13.57;2.40;;;10.30;99.90;;;;;;5091795;28;20286;-61
2022/10/06 05:45:54;;;;;;;8.47;2.53;;;10.30;99.90;;;;;;5091104;28;20216;-60
2022/10/06 05:48:21;;;;;;;11.17;2.03;;;10.30;99.90;;;;;;5091723;28;20227;-60
2022/10/06 05:50:48;;;;;;;12.43;2.50;;;10.30;99.90;;;;;;5074831;28;20296;-59
2022/10/06 05:53:15;;;;;;;13.53;2.17;;;10.30;99.90;;;;;;5089911;28;20208;-60
2022/10/06 05:55:42;;;;;;;8.90;2.00;;;10.20;99.90;;;;;;5089841;28;20215;-61
2022/10/06 05:58:10;;;;;;;11.43;2.23;;;10.20;99.90;;;;;;5090665;28;20377;-59
2022/10/06 06:00:37;;;;;;;8.67;2.27;;;10.20;99.90;;;;;;5094189;28;20714;-59
2022/10/06 06:03:07;;;;;;;9.33;2.20;;;10.20;99.90;;;;;;5093723;28;20695;-58
2022/10/06 06:05:34;;;;;;;11.40;2.17;;;10.20;99.90;;;;;;5094397;28;20204;-57
2022/10/06 06:08:01;;;;;;;8.60;1.83;;;10.20;99.90;;;;;;5094594;28;20228;-58
2022/10/06 06:10:27;;;;;;;13.50;2.30;;;10.20;99.90;;;;;;5095488;28;20208;-54
2022/10/06 06:12:54;;;;;;;12.63;2.47;;;10.10;99.90;;;;;;5094330;28;20237;-57
2022/10/06 06:18:06;;;;;;;8.77;1.80;;;10.20;99.90;;;;;;5084463;28;20335;-62
2022/10/06 06:20:33;;;;;;;10.60;2.27;;;10.20;99.90;;;;;;5094314;28;20707;-61
2022/10/06 06:23:00;;;;;;;9.67;2.33;;;10.20;99.90;;;;;;5095070;28;20208;-58
2022/10/06 06:25:26;;;;;;;17.27;2.27;;;10.20;99.90;;;;;;5094202;28;20669;-59
2022/10/06 06:27:54;;;;;;;10.03;1.73;;;10.20;99.90;;;;;;5094474;28;20217;-59
2022/10/06 06:30:23;;;;;;;6.30;1.50;;;10.30;99.90;;;;;;5094211;28;20208;-58
2022/10/06 06:32:49;;;;;;;7.77;1.90;;;10.30;99.90;;;;;;5094837;28;20215;-59
2022/10/06 06:35:16;;;;;;;10.27;1.60;;;10.30;99.90;;;;;;5094225;28;20220;-58
2022/10/06 06:37:43;;;;;;;11.83;2.00;;;10.40;99.90;;;;;;5094145;28;20285;-61
2022/10/06 06:40:10;;;;;;;7.57;1.93;;;10.40;99.90;;;;;;5094348;28;20211;-61
2022/10/06 06:42:37;;;;;;;13.90;2.20;;;10.40;99.90;;;;;;5094640;28;20215;-60
2022/10/06 06:45:04;;;;;;;10.10;2.53;;;10.40;99.90;;;;;;5093528;28;20215;-62
2022/10/06 06:47:33;;;;;;;11.47;2.00;;;10.40;99.90;;;;;;5093240;28;20553;-66
2022/10/06 06:50:01;;;;;;;11.20;2.17;;;10.50;99.90;;;;;;5093103;28;20204;-62
2022/10/06 06:52:28;;;;;;;6.57;1.80;;;10.50;99.90;;;;;;5091767;28;20240;-61
2022/10/06 06:54:55;;;;;;;8.70;1.80;;;10.50;99.90;;;;;;5094594;28;20208;-65
2022/10/06 06:57:22;;;;;;;9.40;1.70;;;10.60;99.90;;;;;;5093684;28;20311;-58
2022/10/06 06:59:49;;;;;;;10.27;2.00;;;10.70;99.90;;;;;;5094137;28;20298;-59
2022/10/06 07:02:15;;;;;;;23.27;2.57;;;10.70;99.90;;;;;;5094208;28;20675;-58
2022/10/06 07:04:43;;;;;;;15.57;2.53;;;10.70;99.90;;;;;;5093700;28;20588;-60
2022/10/06 07:07:11;;;;;;;10.47;2.00;;;10.80;99.90;;;;;;5093878;28;20634;-59
2022/10/06 07:09:38;;;;;;;8.97;2.30;;;10.90;99.90;;;;;;5092976;28;20273;-59
2022/10/06 07:12:04;;;;;;;11.07;2.37;;;10.90;99.90;;;;;;5093298;28;20204;-58
2022/10/06 07:14:31;;;;;;;10.23;2.17;;;11.00;99.90;;;;;;5093482;28;20200;-55
2022/10/06 07:25:20;;;;;;;14.90;2.47;;;11.30;99.90;;;;;;5093543;28;20249;-58
2022/10/06 07:27:49;;;;;;;14.47;2.43;;;11.40;99.90;;;;;;5093354;28;20319;-57
2022/10/06 07:30:19;;;;;;;15.17;2.20;;;11.40;99.90;;;;;;5093672;28;20631;-59
2022/10/06 07:32:46;;;;;;;9.73;2.03;;;11.50;99.90;;;;;;5093557;28;20213;-58
2022/10/06 07:35:15;;;;;;;10.40;2.47;;;11.60;99.90;;;;;;5093597;28;20212;-60
2022/10/06 07:37:42;;;;;;;14.60;2.27;;;11.60;99.90;;;;;;5092806;28;20314;-62
2022/10/06 07:40:09;;;;;;;15.07;2.13;;;11.70;99.90;;;;;;5092939;28;20889;-61
2022/10/06 07:42:47;;;;;;;4.87;1.40;;;11.80;99.90;;;;;;5093320;28;20606;-60
2022/10/06 07:48:00;;;;;;;13.40;2.67;;;11.90;99.90;;;;;;5092897;28;20226;-61
2022/10/06 07:50:28;;;;;;;17.70;2.80;;;12.00;99.90;;;;;;5093019;28;20222;-61
2022/10/06 07:52:55;;;;;;;9.50;2.57;;;12.10;99.90;;;;;;5092922;28;20207;-60
2022/10/06 07:55:22;;;;;;;12.57;2.50;;;12.20;99.90;;;;;;5079847;28;20215;-60
2022/10/06 07:57:49;;;;;;;13.30;2.20;;;12.30;99.90;;;;;;5092851;28;20778;-60
2022/10/06 08:00:19;;;;;;;8.80;2.30;;;12.30;99.90;;;;;;5092550;28;20234;-59
2022/10/06 08:02:46;;;;;;;9.27;3.10;;;12.40;99.90;;;;;;5093044;28;20217;-52
2022/10/06 08:05:13;;;;;;;11.23;2.73;;;12.50;99.90;;;;;;5092399;28;20617;-56
2022/10/06 08:07:41;;;;;;;14.90;2.63;;;12.60;99.90;;;;;;5092498;28;20225;-56
2022/10/06 08:10:08;;;;;;;12.13;3.77;;;12.70;99.90;;;;;;5092363;28;20294;-56
2022/10/06 08:12:36;;;;;;;15.47;2.80;;;12.70;99.90;;;;;;5093025;28;20230;-58
2022/10/06 08:15:05;;;;;;;16.50;2.90;;;12.80;99.90;;;;;;5092748;28;20217;-63
2022/10/06 08:17:32;;;;;;;11.90;2.30;;;12.90;99.90;;;;;;5092492;28;20211;-63
2022/10/06 08:19:59;;;;;;;11.80;2.73;;;12.90;99.90;;;;;;5092267;28;20342;-63
2022/10/06 08:22:28;;;;;;;12.77;2.63;;;13.00;99.90;;;;;;5092650;28;20204;-64
2022/10/06 08:24:57;;;;;;;14.53;2.50;;;13.10;99.90;;;;;;5092675;28;20204;-64
2022/10/06 08:27:24;;;;;;;13.80;3.20;;;13.20;99.90;;;;;;5091681;28;20307;-60
2022/10/06 08:29:51;;;;;;;16.30;2.33;;;13.30;99.90;;;;;;5092160;28;20258;-58
2022/10/06 08:32:19;;;;;;;11.77;2.43;;;13.40;99.90;;;;;;5091754;28;20261;-58
2022/10/06 08:34:47;;;;;;;12.27;2.90;;;13.40;99.90;;;;;;5091908;28;20214;-61
2022/10/06 08:37:13;;;;;;;11.73;2.27;;;13.40;99.90;;;;;;5090912;28;20295;-55
2022/10/06 08:39:41;;;;;;;12.40;2.37;;;13.50;99.90;;;;;;5092106;28;20721;-61
2022/10/06 08:42:17;;;;;;;13.13;2.30;;;13.50;99.90;;;;;;5092372;28;20803;-57
2022/10/06 08:44:47;;;;;;;8.37;2.23;;;13.70;99.90;;;;;;5092054;28;20212;-57
2022/10/06 08:47:18;;;;;;;14.27;2.57;;;13.70;99.90;;;;;;5092062;28;20253;-57
2022/10/06 08:49:46;;;;;;;16.33;2.43;;;13.80;99.90;;;;;;5091634;28;20209;-57
2022/10/06 08:52:24;;;;;;;14.33;3.40;;;13.80;99.00;;;;;;5091396;28;20204;-57
2022/10/06 08:54:59;;;;;;;10.67;2.20;;;13.90;99.60;;;;;;5090393;28;20206;-59
2022/10/06 08:57:34;;;;;;;9.57;2.30;;;14.00;99.90;;;;;;5090766;28;20214;-59
2022/10/06 09:00:02;;;;;;;11.30;2.07;;;14.10;99.90;;;;;;5090269;28;20251;-59
2022/10/06 09:02:31;;;;;;;9.40;2.67;;;14.20;99.70;;;;;;5092210;28;20261;-62
2022/10/06 09:05:02;;;;;;;9.93;2.30;;;14.10;90.60;;;;;;5091671;28;20204;-62
2022/10/06 09:07:39;;;;;;;13.47;3.03;;;14.10;87.20;;;;;;5091400;28;20204;-56
2022/10/06 09:10:25;;;;;;;9.63;2.50;;;14.20;92.30;;;;;;5090113;28;20245;-60
2022/10/06 09:12:57;;;;;;;10.33;2.33;;;14.20;87.00;;;;;;5090811;28;20204;-61
2022/10/06 09:15:32;;;;;;;8.97;1.80;;;14.30;94.10;;;;;;5080314;28;20623;-56
2022/10/06 09:18:09;;;;;;;11.70;2.37;;;14.40;67.50;;;;;;5091215;28;20310;-59
2022/10/06 09:20:41;;;;;;;10.77;2.67;;;14.40;75.60;;;;;;5091240;28;20227;-57
2022/10/06 09:23:15;;;;;;;11.10;2.07;;;14.50;75.70;;;;;;5091665;28;20294;-60
2022/10/06 09:25:42;;;;;;;9.43;2.07;;;14.60;82.40;;;;;;5091355;28;20212;-57
2022/10/06 09:28:14;;;;;;;10.47;2.17;;;14.60;74.30;;;;;;5090794;28;20232;-59
2022/10/06 09:30:42;;;;;;;7.97;1.90;;;14.70;73.90;;;;;;5091730;28;20315;-54
2022/10/06 09:33:17;;;;;;;12.90;2.03;;;14.70;77.30;;;;;;5091191;28;20575;-61
2022/10/06 09:36:05;;;;;;;11.13;2.10;;;14.80;65.70;;;;;;5091150;28;20215;-62
2022/10/06 09:38:47;;;;;;;9.10;2.70;;;14.80;75.00;;;;;;5091285;28;20231;-61
2022/10/06 09:41:14;;;;;;;10.97;2.20;;;14.90;68.70;;;;;;5091943;28;20243;-57
2022/10/06 09:43:53;;;;;;;12.87;2.07;;;14.90;65.70;;;;;;5091436;28;20231;-59
2022/10/06 09:46:26;;;;;;;9.57;2.17;;;14.90;42.10;;;;;;5091296;28;20272;-58
2022/10/06 09:49:07;;;;;;;11.33;2.10;;;15.00;50.70;;;;;;5091277;28;20281;-58
2022/10/06 09:51:37;;;;;;;10.07;1.33;;;15.00;54.80;;;;;;5091195;28;20204;-58
2022/10/06 09:54:12;;;;;;;9.50;1.97;;;15.10;48.60;;;;;;5090735;28;20210;-59
2022/10/06 09:56:40;;;;;;;13.73;2.30;;;15.10;7.30;;;;;;5090786;28;20300;-58
2022/10/06 09:59:18;;;;;;;14.17;2.17;;;15.20;35.00;;;;;;5090982;28;20224;-58
2022/10/06 10:01:51;;;;;;;12.37;1.93;;;15.30;35.90;;;;;;5090897;28;20212;-57
2022/10/06 10:04:22;;;;;;;10.40;1.60;;;15.40;29.70;;;;;;5091712;28;20211;-57
2022/10/06 10:06:50;;;;;;;11.03;2.03;;;15.60;35.70;;;;;;5090325;28;20621;-59
2022/10/06 10:09:35;;;;;;;8.03;2.00;;;15.70;1.00;;;;;;5091557;28;20224;-57
2022/10/06 10:12:29;;;;;;;16.27;2.00;;;15.90;1.00;;;;;;5090744;28;20215;-57
2022/10/06 10:15:00;;;;;;;11.77;2.00;;;16.00;1.00;;;;;;5091300;28;20208;-58
2022/10/06 10:17:47;;;;;;;11.17;1.77;;;16.00;1.00;;;;;;5090257;28;20204;-58
2022/10/06 10:20:33;;;;;;;9.57;1.90;;;15.90;99.90;;;;;;5091264;28;20220;-58
2022/10/06 10:23:02;;;;;;;12.67;2.20;;;15.80;99.90;;;;;;5090537;28;20204;-56
2022/10/06 10:25:47;;;;;;;8.97;1.70;;;15.90;1.00;;;;;;5091080;28;20216;-59
2022/10/06 10:28:28;;;;;;;10.93;2.17;;;16.00;1.00;;;;;;5090285;28;20702;-58
2022/10/06 10:31:02;;;;;;;10.57;1.77;;;16.00;94.00;;;;;;5091226;28;20596;-57
2022/10/06 10:33:40;;;;;;;9.37;1.60;;;16.20;1.00;;;;;;5090794;28;20189;-58
2022/10/06 10:36:12;;;;;;;9.27;1.47;;;16.20;1.00;;;;;;5090636;28;20212;-56
2022/10/06 10:38:41;;;;;;;9.80;1.40;;;16.10;99.90;;;;;;5090041;28;20727;-63
2022/10/06 10:41:13;;;;;;;7.93;1.50;;;16.10;99.90;;;;;;5090781;28;20590;-63
2022/10/06 10:43:48;;;;;;;6.43;1.23;;;16.20;99.90;;;;;;5089149;28;20253;-63
2022/10/06 10:46:22;;;;;;;6.40;1.70;;;16.00;99.90;;;;;;5090662;28;20222;-64
2022/10/06 10:48:55;;;;;;;7.70;1.67;;;16.20;99.90;;;;;;5094336;28;20232;-65
2022/10/06 10:51:26;;;;;;;10.07;1.30;;;16.20;1.00;;;;;;5094012;28;20214;-65
2022/10/06 10:53:59;;;;;;;3.50;1.40;;;16.30;1.00;;;;;;5094121;28;20204;-65
2022/10/06 10:56:26;;;;;;;5.60;0.87;;;16.30;1.00;;;;;;5093687;28;20215;-63
2022/10/06 10:59:00;;;;;;;4.93;0.90;;;16.40;99.90;;;;;;5094272;28;20224;-64
2022/10/06 11:01:35;;;;;;;7.53;1.27;;;16.50;99.90;;;;;;5093836;28;20204;-64
2022/10/06 11:04:03;;;;;;;13.10;1.77;;;16.60;87.20;;;;;;5094334;28;20223;-64
2022/10/06 11:06:48;;;;;;;6.20;1.80;;;16.70;99.90;;;;;;5093595;28;20261;-64
2022/10/06 11:09:18;;;;;;;5.97;1.30;;;16.70;1.00;;;;;;5094446;28;20345;-65
2022/10/06 11:11:55;;;;;;;7.60;1.47;;;16.70;1.00;;;;;;5094237;28;20217;-63
2022/10/06 11:14:34;;;;;;;6.60;1.13;;;16.80;1.00;;;;;;5094245;28;20290;-63
2022/10/06 11:17:11;;;;;;;7.23;1.67;;;16.70;1.00;;;;;;5093307;28;20256;-55
2022/10/06 11:19:49;;;;;;;9.27;1.80;;;16.70;1.00;;;;;;5094224;28;20228;-59
2022/10/06 11:22:21;;;;;;;7.93;1.63;;;16.70;1.00;;;;;;5094312;28;20686;-60
2022/10/06 11:24:56;;;;;;;10.67;1.93;;;16.80;1.00;;;;;;5093939;28;20211;-61
2022/10/06 11:27:36;;;;;;;5.17;1.30;;;16.90;1.00;;;;;;5092884;28;20222;-59
2022/10/06 11:30:06;;;;;;;5.37;1.33;;;16.80;99.90;;;;;;5093144;28;20249;-61
2022/10/06 11:32:47;;;;;;;4.73;1.67;;;16.80;99.90;;;;;;5093861;28;20212;-62
2022/10/06 11:35:20;;;;;;;7.07;1.57;;;16.80;99.90;;;;;;5093024;28;20211;-60
2022/10/06 11:37:51;;;;;;;4.80;1.40;;;16.70;1.00;;;;;;5079549;28;20228;-62
2022/10/06 11:40:37;;;;;;;6.70;1.60;;;16.60;99.90;;;;;;5072258;28;20228;-63
2022/10/06 11:43:12;;;;;;;7.57;2.10;;;16.50;99.90;;;;;;5074365;28;20296;-61
2022/10/06 11:45:48;;;;;;;7.90;1.70;;;16.50;99.90;;;;;;5072224;28;20208;-62
2022/10/06 11:48:24;;;;;;;6.37;1.70;;;16.40;99.90;;;;;;5072160;28;20498;-62
2022/10/06 11:50:54;;;;;;;12.20;1.33;;;16.20;1.00;;;;;;5072960;28;20311;-61
2022/10/06 11:53:37;;;;;;;12.27;1.90;;;16.30;99.90;;;;;;5088422;28;20209;-60
2022/10/06 11:56:24;;;;;;;8.50;1.57;;;16.40;99.90;;;;;;5092573;28;20678;-60
2022/10/06 11:59:24;;;;;;;3.13;1.10;;;16.60;99.90;;;;;;5092854;28;20239;-60
2022/10/06 12:01:56;;;;;;;7.40;1.20;;;16.80;99.90;;;;;;5092813;28;20244;-59
2022/10/06 12:04:26;;;;;;;5.37;1.40;;;17.00;99.90;;;;;;5093069;28;20208;-65
2022/10/06 12:06:58;;;;;;;4.87;0.90;;;17.10;99.90;;;;;;5092456;28;20295;-63
2022/10/06 12:09:30;;;;;;;7.53;1.20;;;17.10;1.00;;;;;;5092805;28;20653;-63
2022/10/06 12:11:58;;;;;;;5.87;1.30;;;16.90;1.00;;;;;;5092962;28;20257;-60
2022/10/06 12:14:34;;;;;;;6.00;1.43;;;16.80;1.00;;;;;;5092370;28;20257;-62
2022/10/06 12:17:11;;;;;;;4.20;1.13;;;16.90;1.00;;;;;;5092395;28;20237;-62
2022/10/06 12:19:52;;;;;;;5.33;0.90;;;17.00;1.00;;;;;;5092282;28;21291;-56
2022/10/06 12:22:26;;;;;;;4.30;1.20;;;17.10;99.90;;;;;;5093452;28;20261;-58
2022/10/06 12:25:00;;;;;;;8.57;1.30;;;17.10;99.90;;;;;;5092458;28;20203;-55
2022/10/06 12:27:51;;;;;;;6.87;1.27;;;17.00;99.90;;;;;;5092707;28;20214;-57
2022/10/06 12:30:22;;;;;;;7.20;1.23;;;17.10;99.90;;;;;;5092489;28;20204;-58
2022/10/06 12:32:52;;;;;;;7.97;1.27;;;16.90;99.90;;;;;;5092462;28;20635;-62
2022/10/06 12:35:32;;;;;;;5.63;1.10;;;16.90;99.90;;;;;;5091853;28;20622;-61
2022/10/06 12:38:03;;;;;;;3.77;1.00;;;17.10;99.90;;;;;;5091740;28;20231;-61
2022/10/06 12:40:54;;;;;;;4.33;1.00;;;17.10;99.90;;;;;;5092364;28;20259;-61
2022/10/06 12:43:57;;;;;;;4.47;1.20;;;17.20;99.90;;;;;;5092414;28;20583;-61
2022/10/06 12:46:37;;;;;;;4.53;1.03;;;17.20;99.90;;;;;;5091024;28;20633;-53
2022/10/06 12:49:33;;;;;;;4.27;1.13;;;17.20;99.90;;;;;;5091585;28;20304;-59
2022/10/06 12:52:08;;;;;;;6.80;1.07;;;17.30;99.90;;;;;;5062316;28;20209;-57
2022/10/06 12:54:39;;;;;;;4.27;0.93;;;17.40;99.90;;;;;;5080111;28;20207;-59
2022/10/06 12:57:17;;;;;;;3.27;1.10;;;17.40;99.90;;;;;;5091501;28;20204;-59
2022/10/06 12:59:44;;;;;;;4.23;1.00;;;17.30;99.90;;;;;;5092204;28;20219;-59
2022/10/06 13:02:17;;;;;;;5.83;1.00;;;17.30;99.90;;;;;;5092066;28;20216;-57
2022/10/06 13:04:48;;;;;;;6.63;0.90;;;17.40;99.90;;;;;;5091639;28;20216;-60
2022/10/06 13:07:18;;;;;;;4.70;0.90;;;17.40;99.90;;;;;;5091061;28;20633;-60
2022/10/06 13:09:46;;;;;;;3.57;0.83;;;17.40;99.90;;;;;;5090964;28;20204;-60
2022/10/06 13:12:31;;;;;;;9.53;1.30;;;17.40;99.90;;;;;;5092003;28;20587;-60
2022/10/06 13:15:18;;;;;;;6.57;1.13;;;17.50;99.90;;;;;;5091342;28;20207;-60